sensor_id;sensor_type;location;lat;lon;timestamp;P1;durP1;ratioP1;P2;durP2;ratioP2
18280;SDS011;9266;51.132;17.062;2023-09-19T00:01:33;7.07;;;3.37;;
18280;SDS011;9266;51.132;17.062;2023-09-19T00:04:02;4.97;;;3.77;;
18280;SDS011;9266;51.132;17.062;2023-09-19T00:06:34;3.43;;;2.97;;
18280;SDS011;9266;51.132;17.062;2023-09-19T00:09:02;5.47;;;3.30;;
18280;SDS011;9266;51.132;17.062;2023-09-19T00:11:29;6.77;;;3.87;;
18280;SDS011;9266;51.132;17.062;2023-09-19T00:13:57;4.67;;;3.33;;
18280;SDS011;9266;51.132;17.062;2023-09-19T00:16:25;6.43;;;3.47;;
18280;SDS011;9266;51.132;17.062;2023-09-19T00:18:52;5.80;;;3.57;;
18280;SDS011;9266;51.132;17.062;2023-09-19T00:21:21;5.33;;;3.20;;
18280;SDS011;9266;51.132;17.062;2023-09-19T00:23:48;6.67;;;3.37;;
18280;SDS011;9266;51.132;17.062;2023-09-19T00:26:16;5.50;;;3.20;;
18280;SDS011;9266;51.132;17.062;2023-09-19T00:28:44;4.57;;;3.40;;
18280;SDS011;9266;51.132;17.062;2023-09-19T00:31:11;4.40;;;3.07;;
18280;SDS011;9266;51.132;17.062;2023-09-19T00:33:38;3.93;;;3.20;;
18280;SDS011;9266;51.132;17.062;2023-09-19T00:36:05;3.50;;;3.03;;
18280;SDS011;9266;51.132;17.062;2023-09-19T00:38:33;4.50;;;3.23;;
18280;SDS011;9266;51.132;17.062;2023-09-19T00:41:00;5.13;;;2.97;;
18280;SDS011;9266;51.132;17.062;2023-09-19T00:43:28;5.93;;;3.00;;
18280;SDS011;9266;51.132;17.062;2023-09-19T00:45:59;3.60;;;3.07;;
18280;SDS011;9266;51.132;17.062;2023-09-19T00:48:28;5.50;;;3.13;;
18280;SDS011;9266;51.132;17.062;2023-09-19T00:50:56;4.07;;;2.80;;
18280;SDS011;9266;51.132;17.062;2023-09-19T00:53:28;4.13;;;2.73;;
18280;SDS011;9266;51.132;17.062;2023-09-19T00:56:00;4.40;;;2.90;;
18280;SDS011;9266;51.132;17.062;2023-09-19T00:58:29;3.73;;;2.83;;
18280;SDS011;9266;51.132;17.062;2023-09-19T01:00:59;4.57;;;3.07;;
18280;SDS011;9266;51.132;17.062;2023-09-19T01:03:26;4.60;;;2.50;;
18280;SDS011;9266;51.132;17.062;2023-09-19T01:05:54;4.40;;;3.20;;
18280;SDS011;9266;51.132;17.062;2023-09-19T01:08:21;3.83;;;2.63;;
18280;SDS011;9266;51.132;17.062;2023-09-19T01:10:51;4.47;;;2.67;;
18280;SDS011;9266;51.132;17.062;2023-09-19T01:13:23;4.40;;;2.90;;
18280;SDS011;9266;51.132;17.062;2023-09-19T01:15:59;5.80;;;2.90;;
18280;SDS011;9266;51.132;17.062;2023-09-19T01:18:41;3.70;;;3.03;;
18280;SDS011;9266;51.132;17.062;2023-09-19T01:21:15;3.30;;;2.60;;
18280;SDS011;9266;51.132;17.062;2023-09-19T01:24:05;3.83;;;2.70;;
18280;SDS011;9266;51.132;17.062;2023-09-19T01:32:29;3.80;;;2.57;;
18280;SDS011;9266;51.132;17.062;2023-09-19T01:34:57;5.57;;;2.90;;
18280;SDS011;9266;51.132;17.062;2023-09-19T01:37:29;7.67;;;2.60;;
18280;SDS011;9266;51.132;17.062;2023-09-19T01:39:57;4.50;;;2.63;;
18280;SDS011;9266;51.132;17.062;2023-09-19T01:42:37;5.20;;;2.90;;
18280;SDS011;9266;51.132;17.062;2023-09-19T01:45:11;4.87;;;2.80;;
18280;SDS011;9266;51.132;17.062;2023-09-19T01:47:41;5.60;;;3.00;;
18280;SDS011;9266;51.132;17.062;2023-09-19T01:50:17;4.83;;;2.80;;
18280;SDS011;9266;51.132;17.062;2023-09-19T01:52:49;5.17;;;3.03;;
18280;SDS011;9266;51.132;17.062;2023-09-19T01:55:20;5.70;;;2.90;;
18280;SDS011;9266;51.132;17.062;2023-09-19T01:57:49;6.67;;;3.17;;
18280;SDS011;9266;51.132;17.062;2023-09-19T02:00:26;5.93;;;3.30;;
18280;SDS011;9266;51.132;17.062;2023-09-19T02:02:55;5.03;;;3.17;;
18280;SDS011;9266;51.132;17.062;2023-09-19T02:05:24;5.47;;;3.30;;
18280;SDS011;9266;51.132;17.062;2023-09-19T02:07:52;4.33;;;3.50;;
18280;SDS011;9266;51.132;17.062;2023-09-19T02:10:20;6.90;;;3.43;;
18280;SDS011;9266;51.132;17.062;2023-09-19T02:12:48;6.10;;;3.43;;
18280;SDS011;9266;51.132;17.062;2023-09-19T02:15:16;4.23;;;3.00;;
18280;SDS011;9266;51.132;17.062;2023-09-19T02:17:44;6.37;;;3.50;;
18280;SDS011;9266;51.132;17.062;2023-09-19T02:20:11;5.67;;;3.50;;
18280;SDS011;9266;51.132;17.062;2023-09-19T02:22:39;5.63;;;3.40;;
18280;SDS011;9266;51.132;17.062;2023-09-19T02:25:06;5.43;;;3.23;;
18280;SDS011;9266;51.132;17.062;2023-09-19T02:27:33;5.17;;;3.43;;
18280;SDS011;9266;51.132;17.062;2023-09-19T02:30:01;3.73;;;3.07;;
18280;SDS011;9266;51.132;17.062;2023-09-19T02:32:28;4.93;;;3.07;;
18280;SDS011;9266;51.132;17.062;2023-09-19T02:34:57;5.53;;;3.40;;
18280;SDS011;9266;51.132;17.062;2023-09-19T02:37:25;5.93;;;3.67;;
18280;SDS011;9266;51.132;17.062;2023-09-19T02:39:52;6.63;;;3.80;;
18280;SDS011;9266;51.132;17.062;2023-09-19T02:42:19;6.23;;;3.93;;
18280;SDS011;9266;51.132;17.062;2023-09-19T02:44:46;7.50;;;3.70;;
18280;SDS011;9266;51.132;17.062;2023-09-19T02:47:13;6.07;;;3.50;;
18280;SDS011;9266;51.132;17.062;2023-09-19T02:49:41;5.27;;;3.43;;
18280;SDS011;9266;51.132;17.062;2023-09-19T02:52:10;6.23;;;3.77;;
18280;SDS011;9266;51.132;17.062;2023-09-19T02:54:39;5.40;;;4.00;;
18280;SDS011;9266;51.132;17.062;2023-09-19T02:57:10;7.37;;;4.10;;
18280;SDS011;9266;51.132;17.062;2023-09-19T02:59:39;5.10;;;4.37;;
18280;SDS011;9266;51.132;17.062;2023-09-19T03:02:07;6.30;;;3.97;;
18280;SDS011;9266;51.132;17.062;2023-09-19T03:04:34;5.27;;;3.60;;
18280;SDS011;9266;51.132;17.062;2023-09-19T03:07:01;5.53;;;3.87;;
18280;SDS011;9266;51.132;17.062;2023-09-19T03:09:30;6.33;;;3.77;;
18280;SDS011;9266;51.132;17.062;2023-09-19T03:11:57;6.93;;;3.70;;
18280;SDS011;9266;51.132;17.062;2023-09-19T03:14:25;5.70;;;3.60;;
18280;SDS011;9266;51.132;17.062;2023-09-19T03:16:55;6.67;;;3.87;;
18280;SDS011;9266;51.132;17.062;2023-09-19T03:19:22;6.30;;;3.70;;
18280;SDS011;9266;51.132;17.062;2023-09-19T03:21:51;7.63;;;3.57;;
18280;SDS011;9266;51.132;17.062;2023-09-19T03:24:18;6.47;;;3.73;;
18280;SDS011;9266;51.132;17.062;2023-09-19T03:26:47;6.07;;;3.73;;
18280;SDS011;9266;51.132;17.062;2023-09-19T03:29:14;7.03;;;3.50;;
18280;SDS011;9266;51.132;17.062;2023-09-19T03:31:42;5.00;;;3.17;;
18280;SDS011;9266;51.132;17.062;2023-09-19T03:34:09;4.80;;;2.97;;
18280;SDS011;9266;51.132;17.062;2023-09-19T03:36:36;5.60;;;3.37;;
18280;SDS011;9266;51.132;17.062;2023-09-19T03:39:03;7.43;;;3.77;;
18280;SDS011;9266;51.132;17.062;2023-09-19T03:41:30;6.77;;;3.50;;
18280;SDS011;9266;51.132;17.062;2023-09-19T03:43:59;7.10;;;4.30;;
18280;SDS011;9266;51.132;17.062;2023-09-19T03:46:26;4.43;;;3.87;;
18280;SDS011;9266;51.132;17.062;2023-09-19T03:48:54;6.50;;;4.20;;
18280;SDS011;9266;51.132;17.062;2023-09-19T03:51:21;6.57;;;5.10;;
18280;SDS011;9266;51.132;17.062;2023-09-19T03:53:48;7.53;;;4.60;;
18280;SDS011;9266;51.132;17.062;2023-09-19T03:56:15;8.77;;;5.57;;
18280;SDS011;9266;51.132;17.062;2023-09-19T03:58:42;7.13;;;5.40;;
18280;SDS011;9266;51.132;17.062;2023-09-19T04:01:11;6.57;;;5.20;;
18280;SDS011;9266;51.132;17.062;2023-09-19T04:03:38;9.57;;;5.87;;
18280;SDS011;9266;51.132;17.062;2023-09-19T04:06:12;10.20;;;5.83;;
18280;SDS011;9266;51.132;17.062;2023-09-19T04:08:39;9.63;;;5.70;;
18280;SDS011;9266;51.132;17.062;2023-09-19T04:11:07;8.70;;;5.50;;
18280;SDS011;9266;51.132;17.062;2023-09-19T04:13:33;8.37;;;5.20;;
18280;SDS011;9266;51.132;17.062;2023-09-19T04:16:01;8.63;;;5.23;;
18280;SDS011;9266;51.132;17.062;2023-09-19T04:18:30;7.30;;;5.10;;
18280;SDS011;9266;51.132;17.062;2023-09-19T04:20:58;6.93;;;5.17;;
18280;SDS011;9266;51.132;17.062;2023-09-19T04:23:27;6.33;;;4.70;;
18280;SDS011;9266;51.132;17.062;2023-09-19T04:25:54;9.30;;;4.50;;
18280;SDS011;9266;51.132;17.062;2023-09-19T04:28:22;6.43;;;4.50;;
18280;SDS011;9266;51.132;17.062;2023-09-19T04:30:50;7.50;;;4.67;;
18280;SDS011;9266;51.132;17.062;2023-09-19T04:33:17;6.30;;;3.90;;
18280;SDS011;9266;51.132;17.062;2023-09-19T04:35:45;5.90;;;4.07;;
18280;SDS011;9266;51.132;17.062;2023-09-19T04:38:15;6.87;;;4.00;;
18280;SDS011;9266;51.132;17.062;2023-09-19T04:40:43;6.63;;;4.33;;
18280;SDS011;9266;51.132;17.062;2023-09-19T04:43:10;6.07;;;4.53;;
18280;SDS011;9266;51.132;17.062;2023-09-19T04:45:38;9.80;;;4.60;;
18280;SDS011;9266;51.132;17.062;2023-09-19T04:48:05;6.60;;;5.13;;
18280;SDS011;9266;51.132;17.062;2023-09-19T04:50:34;5.60;;;4.67;;
18280;SDS011;9266;51.132;17.062;2023-09-19T04:53:03;8.53;;;4.80;;
18280;SDS011;9266;51.132;17.062;2023-09-19T04:55:30;8.67;;;4.57;;
18280;SDS011;9266;51.132;17.062;2023-09-19T04:57:58;7.20;;;4.90;;
18280;SDS011;9266;51.132;17.062;2023-09-19T05:00:25;9.13;;;4.60;;
18280;SDS011;9266;51.132;17.062;2023-09-19T05:02:55;6.87;;;4.97;;
18280;SDS011;9266;51.132;17.062;2023-09-19T05:05:23;8.73;;;5.10;;
18280;SDS011;9266;51.132;17.062;2023-09-19T05:07:51;7.03;;;4.47;;
18280;SDS011;9266;51.132;17.062;2023-09-19T05:10:20;9.83;;;4.60;;
18280;SDS011;9266;51.132;17.062;2023-09-19T05:12:47;7.57;;;5.47;;
18280;SDS011;9266;51.132;17.062;2023-09-19T05:15:16;8.83;;;5.10;;
18280;SDS011;9266;51.132;17.062;2023-09-19T05:17:47;7.73;;;5.00;;
18280;SDS011;9266;51.132;17.062;2023-09-19T05:20:16;7.40;;;4.93;;
18280;SDS011;9266;51.132;17.062;2023-09-19T05:22:49;7.33;;;4.97;;
18280;SDS011;9266;51.132;17.062;2023-09-19T05:25:17;8.73;;;4.77;;
18280;SDS011;9266;51.132;17.062;2023-09-19T05:27:48;5.20;;;4.60;;
18280;SDS011;9266;51.132;17.062;2023-09-19T05:30:16;8.90;;;4.87;;
18280;SDS011;9266;51.132;17.062;2023-09-19T05:32:45;9.70;;;4.83;;
18280;SDS011;9266;51.132;17.062;2023-09-19T05:35:12;8.00;;;4.80;;
18280;SDS011;9266;51.132;17.062;2023-09-19T05:37:39;11.00;;;6.07;;
18280;SDS011;9266;51.132;17.062;2023-09-19T05:40:06;8.43;;;5.00;;
18280;SDS011;9266;51.132;17.062;2023-09-19T05:42:37;8.50;;;4.90;;
18280;SDS011;9266;51.132;17.062;2023-09-19T05:45:08;10.17;;;4.60;;
18280;SDS011;9266;51.132;17.062;2023-09-19T05:47:37;8.23;;;4.63;;
18280;SDS011;9266;51.132;17.062;2023-09-19T05:50:05;10.47;;;4.73;;
18280;SDS011;9266;51.132;17.062;2023-09-19T05:52:34;10.37;;;4.87;;
18280;SDS011;9266;51.132;17.062;2023-09-19T05:55:02;5.50;;;3.87;;
18280;SDS011;9266;51.132;17.062;2023-09-19T05:57:31;5.50;;;4.10;;
18280;SDS011;9266;51.132;17.062;2023-09-19T05:59:58;9.37;;;4.17;;
18280;SDS011;9266;51.132;17.062;2023-09-19T06:02:27;10.97;;;5.10;;
18280;SDS011;9266;51.132;17.062;2023-09-19T06:04:55;7.03;;;3.93;;
18280;SDS011;9266;51.132;17.062;2023-09-19T06:07:22;11.90;;;4.63;;
18280;SDS011;9266;51.132;17.062;2023-09-19T06:09:51;6.07;;;4.10;;
18280;SDS011;9266;51.132;17.062;2023-09-19T06:12:18;7.87;;;4.50;;
18280;SDS011;9266;51.132;17.062;2023-09-19T06:14:45;8.40;;;3.90;;
18280;SDS011;9266;51.132;17.062;2023-09-19T06:17:13;5.23;;;3.70;;
18280;SDS011;9266;51.132;17.062;2023-09-19T06:19:41;7.30;;;3.40;;
18280;SDS011;9266;51.132;17.062;2023-09-19T06:22:14;4.83;;;3.63;;
18280;SDS011;9266;51.132;17.062;2023-09-19T06:24:43;4.83;;;3.80;;
18280;SDS011;9266;51.132;17.062;2023-09-19T06:27:10;8.13;;;4.10;;
18280;SDS011;9266;51.132;17.062;2023-09-19T06:29:37;7.80;;;3.60;;
18280;SDS011;9266;51.132;17.062;2023-09-19T06:32:06;7.43;;;3.23;;
18280;SDS011;9266;51.132;17.062;2023-09-19T06:34:35;4.57;;;3.00;;
18280;SDS011;9266;51.132;17.062;2023-09-19T06:37:05;4.43;;;3.20;;
18280;SDS011;9266;51.132;17.062;2023-09-19T06:39:32;3.80;;;3.10;;
18280;SDS011;9266;51.132;17.062;2023-09-19T06:41:59;7.57;;;3.53;;
18280;SDS011;9266;51.132;17.062;2023-09-19T06:44:27;4.73;;;3.20;;
18280;SDS011;9266;51.132;17.062;2023-09-19T06:46:54;5.93;;;3.03;;
18280;SDS011;9266;51.132;17.062;2023-09-19T06:49:21;8.43;;;3.53;;
18280;SDS011;9266;51.132;17.062;2023-09-19T06:51:48;8.23;;;3.20;;
18280;SDS011;9266;51.132;17.062;2023-09-19T06:54:17;4.70;;;3.07;;
18280;SDS011;9266;51.132;17.062;2023-09-19T06:56:44;5.67;;;3.60;;
18280;SDS011;9266;51.132;17.062;2023-09-19T06:59:11;8.07;;;3.20;;
18280;SDS011;9266;51.132;17.062;2023-09-19T07:01:39;4.33;;;3.47;;
18280;SDS011;9266;51.132;17.062;2023-09-19T07:04:09;5.80;;;3.07;;
18280;SDS011;9266;51.132;17.062;2023-09-19T07:06:38;6.03;;;3.13;;
18280;SDS011;9266;51.132;17.062;2023-09-19T07:09:05;6.60;;;3.20;;
18280;SDS011;9266;51.132;17.062;2023-09-19T07:11:34;10.87;;;3.17;;
18280;SDS011;9266;51.132;17.062;2023-09-19T07:14:02;4.80;;;2.90;;
18280;SDS011;9266;51.132;17.062;2023-09-19T07:16:31;8.40;;;2.93;;
18280;SDS011;9266;51.132;17.062;2023-09-19T07:18:58;7.73;;;6.43;;
18280;SDS011;9266;51.132;17.062;2023-09-19T07:21:25;4.97;;;3.30;;
18280;SDS011;9266;51.132;17.062;2023-09-19T07:23:52;4.30;;;3.40;;
18280;SDS011;9266;51.132;17.062;2023-09-19T07:26:19;4.53;;;3.30;;
18280;SDS011;9266;51.132;17.062;2023-09-19T07:28:47;7.60;;;3.13;;
18280;SDS011;9266;51.132;17.062;2023-09-19T07:31:14;9.03;;;2.90;;
18280;SDS011;9266;51.132;17.062;2023-09-19T07:33:42;3.70;;;2.63;;
18280;SDS011;9266;51.132;17.062;2023-09-19T07:36:09;5.50;;;2.97;;
18280;SDS011;9266;51.132;17.062;2023-09-19T07:38:38;5.73;;;3.00;;
18280;SDS011;9266;51.132;17.062;2023-09-19T07:41:05;4.37;;;2.60;;
18280;SDS011;9266;51.132;17.062;2023-09-19T07:43:34;4.23;;;2.50;;
18280;SDS011;9266;51.132;17.062;2023-09-19T07:46:04;5.40;;;3.00;;
18280;SDS011;9266;51.132;17.062;2023-09-19T07:48:34;4.33;;;2.93;;
18280;SDS011;9266;51.132;17.062;2023-09-19T07:51:02;3.37;;;2.40;;
18280;SDS011;9266;51.132;17.062;2023-09-19T07:53:30;3.93;;;2.77;;
18280;SDS011;9266;51.132;17.062;2023-09-19T07:56:03;3.40;;;2.53;;
18280;SDS011;9266;51.132;17.062;2023-09-19T07:58:31;3.77;;;2.40;;
18280;SDS011;9266;51.132;17.062;2023-09-19T08:01:02;3.70;;;2.70;;
18280;SDS011;9266;51.132;17.062;2023-09-19T08:03:31;5.90;;;2.53;;
18280;SDS011;9266;51.132;17.062;2023-09-19T08:05:59;5.60;;;2.80;;
18280;SDS011;9266;51.132;17.062;2023-09-19T08:08:26;4.17;;;2.70;;
18280;SDS011;9266;51.132;17.062;2023-09-19T08:10:53;4.93;;;2.90;;
18280;SDS011;9266;51.132;17.062;2023-09-19T08:13:21;3.87;;;2.97;;
18280;SDS011;9266;51.132;17.062;2023-09-19T08:15:49;6.80;;;2.90;;
18280;SDS011;9266;51.132;17.062;2023-09-19T08:18:19;3.60;;;2.70;;
18280;SDS011;9266;51.132;17.062;2023-09-19T08:20:51;3.60;;;2.33;;
18280;SDS011;9266;51.132;17.062;2023-09-19T08:23:18;6.03;;;2.70;;
18280;SDS011;9266;51.132;17.062;2023-09-19T08:25:46;5.13;;;2.70;;
18280;SDS011;9266;51.132;17.062;2023-09-19T08:28:13;5.17;;;2.87;;
18280;SDS011;9266;51.132;17.062;2023-09-19T08:30:45;8.83;;;2.90;;
18280;SDS011;9266;51.132;17.062;2023-09-19T08:33:12;4.20;;;2.90;;
18280;SDS011;9266;51.132;17.062;2023-09-19T08:35:41;4.13;;;2.73;;
18280;SDS011;9266;51.132;17.062;2023-09-19T08:38:10;4.23;;;2.77;;
18280;SDS011;9266;51.132;17.062;2023-09-19T08:40:39;4.27;;;2.90;;
18280;SDS011;9266;51.132;17.062;2023-09-19T08:43:07;5.37;;;2.83;;
18280;SDS011;9266;51.132;17.062;2023-09-19T08:45:34;6.87;;;3.17;;
18280;SDS011;9266;51.132;17.062;2023-09-19T08:48:06;2.70;;;2.47;;
18280;SDS011;9266;51.132;17.062;2023-09-19T08:50:49;6.27;;;2.80;;
18280;SDS011;9266;51.132;17.062;2023-09-19T08:53:26;4.63;;;3.37;;
18280;SDS011;9266;51.132;17.062;2023-09-19T08:55:57;3.37;;;2.70;;
18280;SDS011;9266;51.132;17.062;2023-09-19T08:58:28;4.40;;;2.67;;
18280;SDS011;9266;51.132;17.062;2023-09-19T09:01:00;3.93;;;3.10;;
18280;SDS011;9266;51.132;17.062;2023-09-19T09:03:31;4.73;;;2.60;;
18280;SDS011;9266;51.132;17.062;2023-09-19T09:06:01;4.73;;;2.47;;
18280;SDS011;9266;51.132;17.062;2023-09-19T09:08:29;5.67;;;2.70;;
18280;SDS011;9266;51.132;17.062;2023-09-19T09:10:57;5.67;;;2.73;;
18280;SDS011;9266;51.132;17.062;2023-09-19T09:13:25;3.53;;;2.23;;
18280;SDS011;9266;51.132;17.062;2023-09-19T09:15:52;2.47;;;2.27;;
18280;SDS011;9266;51.132;17.062;2023-09-19T09:18:20;3.00;;;2.70;;
18280;SDS011;9266;51.132;17.062;2023-09-19T09:20:47;4.30;;;2.50;;
18280;SDS011;9266;51.132;17.062;2023-09-19T09:23:16;4.47;;;2.43;;
18280;SDS011;9266;51.132;17.062;2023-09-19T09:25:49;5.47;;;2.67;;
18280;SDS011;9266;51.132;17.062;2023-09-19T09:28:20;4.93;;;2.63;;
18280;SDS011;9266;51.132;17.062;2023-09-19T09:30:48;3.50;;;2.40;;
18280;SDS011;9266;51.132;17.062;2023-09-19T09:33:15;4.17;;;2.50;;
18280;SDS011;9266;51.132;17.062;2023-09-19T09:35:50;4.77;;;2.70;;
18280;SDS011;9266;51.132;17.062;2023-09-19T09:38:23;4.23;;;2.50;;
18280;SDS011;9266;51.132;17.062;2023-09-19T09:40:53;4.07;;;2.40;;
18280;SDS011;9266;51.132;17.062;2023-09-19T09:43:27;4.00;;;2.53;;
18280;SDS011;9266;51.132;17.062;2023-09-19T09:46:09;4.67;;;2.53;;
18280;SDS011;9266;51.132;17.062;2023-09-19T09:49:10;5.23;;;2.50;;
18280;SDS011;9266;51.132;17.062;2023-09-19T09:51:58;4.47;;;2.43;;
18280;SDS011;9266;51.132;17.062;2023-09-19T09:54:34;3.37;;;2.57;;
18280;SDS011;9266;51.132;17.062;2023-09-19T09:57:03;2.50;;;2.30;;
18280;SDS011;9266;51.132;17.062;2023-09-19T09:59:46;3.97;;;2.50;;
18280;SDS011;9266;51.132;17.062;2023-09-19T10:02:16;4.23;;;2.63;;
18280;SDS011;9266;51.132;17.062;2023-09-19T10:04:50;3.23;;;2.70;;
18280;SDS011;9266;51.132;17.062;2023-09-19T10:07:32;3.47;;;2.50;;
18280;SDS011;9266;51.132;17.062;2023-09-19T10:10:05;6.30;;;3.13;;
18280;SDS011;9266;51.132;17.062;2023-09-19T10:12:42;3.77;;;2.40;;
18280;SDS011;9266;51.132;17.062;2023-09-19T10:15:13;5.87;;;2.60;;
18280;SDS011;9266;51.132;17.062;2023-09-19T10:17:42;3.23;;;2.50;;
18280;SDS011;9266;51.132;17.062;2023-09-19T10:20:14;4.53;;;2.10;;
18280;SDS011;9266;51.132;17.062;2023-09-19T10:22:49;5.03;;;2.70;;
18280;SDS011;9266;51.132;17.062;2023-09-19T10:25:24;3.13;;;2.20;;
18280;SDS011;9266;51.132;17.062;2023-09-19T10:27:54;6.70;;;2.20;;
18280;SDS011;9266;51.132;17.062;2023-09-19T10:30:22;3.23;;;2.07;;
18280;SDS011;9266;51.132;17.062;2023-09-19T10:33:01;6.23;;;2.40;;
18280;SDS011;9266;51.132;17.062;2023-09-19T10:35:29;3.80;;;2.10;;
18280;SDS011;9266;51.132;17.062;2023-09-19T10:37:59;2.73;;;2.20;;
18280;SDS011;9266;51.132;17.062;2023-09-19T10:40:29;2.90;;;2.50;;
18280;SDS011;9266;51.132;17.062;2023-09-19T10:43:00;4.03;;;2.47;;
18280;SDS011;9266;51.132;17.062;2023-09-19T10:45:31;4.10;;;2.50;;
18280;SDS011;9266;51.132;17.062;2023-09-19T10:48:00;5.27;;;2.70;;
18280;SDS011;9266;51.132;17.062;2023-09-19T10:50:28;3.47;;;2.40;;
18280;SDS011;9266;51.132;17.062;2023-09-19T10:52:59;6.83;;;2.23;;
18280;SDS011;9266;51.132;17.062;2023-09-19T10:55:34;4.20;;;2.20;;
18280;SDS011;9266;51.132;17.062;2023-09-19T10:58:02;6.00;;;2.10;;
18280;SDS011;9266;51.132;17.062;2023-09-19T11:00:51;4.40;;;2.23;;
18280;SDS011;9266;51.132;17.062;2023-09-19T11:03:20;2.97;;;2.10;;
18280;SDS011;9266;51.132;17.062;2023-09-19T11:08:59;3.50;;;1.87;;
18280;SDS011;9266;51.132;17.062;2023-09-19T11:11:46;3.47;;;2.50;;
18280;SDS011;9266;51.132;17.062;2023-09-19T11:14:30;3.20;;;2.07;;
18280;SDS011;9266;51.132;17.062;2023-09-19T11:20:20;3.20;;;2.30;;
18280;SDS011;9266;51.132;17.062;2023-09-19T11:23:18;3.77;;;2.07;;
18280;SDS011;9266;51.132;17.062;2023-09-19T11:25:51;2.30;;;1.90;;
18280;SDS011;9266;51.132;17.062;2023-09-19T11:28:31;3.97;;;2.23;;
18280;SDS011;9266;51.132;17.062;2023-09-19T11:40:36;2.97;;;2.00;;
18280;SDS011;9266;51.132;17.062;2023-09-19T11:46:07;3.23;;;1.70;;
18280;SDS011;9266;51.132;17.062;2023-09-19T11:48:40;4.63;;;1.97;;
18280;SDS011;9266;51.132;17.062;2023-09-19T11:51:12;3.67;;;2.10;;
18280;SDS011;9266;51.132;17.062;2023-09-19T11:53:52;2.47;;;1.83;;
18280;SDS011;9266;51.132;17.062;2023-09-19T11:56:21;2.63;;;1.80;;
18280;SDS011;9266;51.132;17.062;2023-09-19T11:58:50;2.70;;;1.63;;
18280;SDS011;9266;51.132;17.062;2023-09-19T12:01:23;2.87;;;1.70;;
18280;SDS011;9266;51.132;17.062;2023-09-19T12:03:54;2.47;;;1.90;;
18280;SDS011;9266;51.132;17.062;2023-09-19T12:06:24;2.67;;;1.60;;
18280;SDS011;9266;51.132;17.062;2023-09-19T12:08:52;3.57;;;1.70;;
18280;SDS011;9266;51.132;17.062;2023-09-19T12:11:21;2.87;;;1.80;;
18280;SDS011;9266;51.132;17.062;2023-09-19T12:13:49;3.80;;;1.73;;
18280;SDS011;9266;51.132;17.062;2023-09-19T12:16:18;3.47;;;2.00;;
18280;SDS011;9266;51.132;17.062;2023-09-19T12:18:49;4.00;;;1.80;;
18280;SDS011;9266;51.132;17.062;2023-09-19T12:21:23;4.23;;;2.17;;
18280;SDS011;9266;51.132;17.062;2023-09-19T12:26:42;2.43;;;1.70;;
18280;SDS011;9266;51.132;17.062;2023-09-19T12:29:12;3.33;;;1.63;;
18280;SDS011;9266;51.132;17.062;2023-09-19T12:31:49;2.63;;;2.13;;
18280;SDS011;9266;51.132;17.062;2023-09-19T12:34:21;2.60;;;2.10;;
18280;SDS011;9266;51.132;17.062;2023-09-19T12:37:03;2.47;;;1.60;;
18280;SDS011;9266;51.132;17.062;2023-09-19T12:39:36;4.10;;;1.98;;
18280;SDS011;9266;51.132;17.062;2023-09-19T12:42:06;2.57;;;2.00;;
18280;SDS011;9266;51.132;17.062;2023-09-19T12:44:35;2.83;;;2.10;;
18280;SDS011;9266;51.132;17.062;2023-09-19T12:47:13;5.40;;;1.87;;
18280;SDS011;9266;51.132;17.062;2023-09-19T12:52:54;3.55;;;1.75;;
18280;SDS011;9266;51.132;17.062;2023-09-19T12:55:25;4.15;;;2.08;;
18280;SDS011;9266;51.132;17.062;2023-09-19T12:57:58;1.90;;;1.70;;
18280;SDS011;9266;51.132;17.062;2023-09-19T13:00:33;4.13;;;2.22;;
18280;SDS011;9266;51.132;17.062;2023-09-19T13:03:14;4.07;;;2.20;;
18280;SDS011;9266;51.132;17.062;2023-09-19T13:05:51;3.17;;;1.80;;
18280;SDS011;9266;51.132;17.062;2023-09-19T13:08:21;1.97;;;1.87;;
18280;SDS011;9266;51.132;17.062;2023-09-19T13:11:04;2.70;;;1.88;;
18280;SDS011;9266;51.132;17.062;2023-09-19T13:13:35;2.75;;;1.80;;
18280;SDS011;9266;51.132;17.062;2023-09-19T13:16:03;3.93;;;2.13;;
18280;SDS011;9266;51.132;17.062;2023-09-19T13:18:41;3.78;;;1.83;;
18280;SDS011;9266;51.132;17.062;2023-09-19T13:21:12;2.70;;;1.83;;
18280;SDS011;9266;51.132;17.062;2023-09-19T13:23:48;3.10;;;2.10;;
18280;SDS011;9266;51.132;17.062;2023-09-19T13:26:16;4.77;;;2.13;;
18280;SDS011;9266;51.132;17.062;2023-09-19T13:28:43;2.87;;;2.07;;
18280;SDS011;9266;51.132;17.062;2023-09-19T13:31:14;3.03;;;1.80;;
18280;SDS011;9266;51.132;17.062;2023-09-19T13:33:44;2.67;;;1.90;;
18280;SDS011;9266;51.132;17.062;2023-09-19T13:36:13;3.43;;;2.40;;
18280;SDS011;9266;51.132;17.062;2023-09-19T13:38:40;2.60;;;1.80;;
18280;SDS011;9266;51.132;17.062;2023-09-19T13:41:09;4.27;;;1.80;;
18280;SDS011;9266;51.132;17.062;2023-09-19T13:43:36;3.73;;;2.37;;
18280;SDS011;9266;51.132;17.062;2023-09-19T13:46:03;2.03;;;1.80;;
18280;SDS011;9266;51.132;17.062;2023-09-19T13:48:32;2.40;;;1.70;;
18280;SDS011;9266;51.132;17.062;2023-09-19T13:51:01;2.10;;;1.70;;
18280;SDS011;9266;51.132;17.062;2023-09-19T13:53:30;2.37;;;1.90;;
18280;SDS011;9266;51.132;17.062;2023-09-19T13:55:57;2.93;;;1.80;;
18280;SDS011;9266;51.132;17.062;2023-09-19T13:58:24;4.77;;;2.17;;
18280;SDS011;9266;51.132;17.062;2023-09-19T14:00:52;2.47;;;2.10;;
18280;SDS011;9266;51.132;17.062;2023-09-19T14:03:21;3.43;;;2.47;;
18280;SDS011;9266;51.132;17.062;2023-09-19T14:05:49;3.30;;;1.70;;
18280;SDS011;9266;51.132;17.062;2023-09-19T14:08:16;2.40;;;1.73;;
18280;SDS011;9266;51.132;17.062;2023-09-19T14:10:48;5.03;;;2.30;;
18280;SDS011;9266;51.132;17.062;2023-09-19T14:13:15;2.80;;;2.07;;
18280;SDS011;9266;51.132;17.062;2023-09-19T14:15:42;2.40;;;1.83;;
18280;SDS011;9266;51.132;17.062;2023-09-19T14:18:09;3.77;;;1.53;;
18280;SDS011;9266;51.132;17.062;2023-09-19T14:20:37;2.70;;;2.00;;
18280;SDS011;9266;51.132;17.062;2023-09-19T14:23:06;3.93;;;3.23;;
18280;SDS011;9266;51.132;17.062;2023-09-19T14:25:34;2.97;;;2.10;;
18280;SDS011;9266;51.132;17.062;2023-09-19T14:28:03;2.20;;;2.00;;
18280;SDS011;9266;51.132;17.062;2023-09-19T14:30:33;3.03;;;2.10;;
18280;SDS011;9266;51.132;17.062;2023-09-19T14:33:00;3.37;;;1.80;;
18280;SDS011;9266;51.132;17.062;2023-09-19T14:35:27;2.53;;;1.70;;
18280;SDS011;9266;51.132;17.062;2023-09-19T14:37:54;3.77;;;2.10;;
18280;SDS011;9266;51.132;17.062;2023-09-19T14:40:21;2.30;;;1.73;;
18280;SDS011;9266;51.132;17.062;2023-09-19T14:42:48;3.60;;;2.10;;
18280;SDS011;9266;51.132;17.062;2023-09-19T14:45:17;2.53;;;1.70;;
18280;SDS011;9266;51.132;17.062;2023-09-19T14:50:12;5.53;;;1.90;;
18280;SDS011;9266;51.132;17.062;2023-09-19T14:52:40;4.23;;;1.80;;
18280;SDS011;9266;51.132;17.062;2023-09-19T14:55:07;3.40;;;1.93;;
18280;SDS011;9266;51.132;17.062;2023-09-19T14:57:39;2.10;;;1.70;;
18280;SDS011;9266;51.132;17.062;2023-09-19T15:00:09;2.97;;;1.90;;
18280;SDS011;9266;51.132;17.062;2023-09-19T15:02:39;3.73;;;1.77;;
18280;SDS011;9266;51.132;17.062;2023-09-19T15:05:06;3.00;;;1.80;;
18280;SDS011;9266;51.132;17.062;2023-09-19T15:07:34;3.40;;;1.87;;
18280;SDS011;9266;51.132;17.062;2023-09-19T15:10:03;3.60;;;2.10;;
18280;SDS011;9266;51.132;17.062;2023-09-19T15:12:32;3.47;;;1.93;;
18280;SDS011;9266;51.132;17.062;2023-09-19T15:15:01;2.60;;;1.90;;
18280;SDS011;9266;51.132;17.062;2023-09-19T15:17:30;4.90;;;2.30;;
18280;SDS011;9266;51.132;17.062;2023-09-19T15:19:59;2.50;;;1.90;;
18280;SDS011;9266;51.132;17.062;2023-09-19T15:22:27;2.37;;;2.00;;
18280;SDS011;9266;51.132;17.062;2023-09-19T15:24:54;2.03;;;1.60;;
18280;SDS011;9266;51.132;17.062;2023-09-19T15:27:21;2.83;;;2.03;;
18280;SDS011;9266;51.132;17.062;2023-09-19T15:29:48;3.10;;;1.90;;
18280;SDS011;9266;51.132;17.062;2023-09-19T15:32:15;2.53;;;1.80;;
18280;SDS011;9266;51.132;17.062;2023-09-19T15:34:42;2.60;;;1.80;;
18280;SDS011;9266;51.132;17.062;2023-09-19T15:37:10;3.27;;;1.63;;